首页
METAR-TAF:

METAR-TAF

机场 :

尤馬, 亞利桑那州, 美国

纬度: 32-37-25N, 经度: 113-45-50W, 海拔: 64米

当前天气观测

该预报发布于44分钟前的23:57 UTC
风速5节,风向西
温度 40°C
湿度 7%
气压 1007 hPa
能見度: 16.1公里
多云层高于11000英尺

METAR: KNYL 262357Z AUTO 27005KT 10SM BKN110 40/M03 A2973 RMK AO2 SLP063 T04001033 10406 20350 56016 $

时间: 17:41 (00:41 UTC)

预报

预报有效从26日的 21点(UTC)到 27日的 21点(UTC)
风速5节,风向多变
能见度10公里或以上
天空无云
短暂存在
从 27日的 02点(UTC)到 27日的 07点(UTC)
风速8节,风向
成为
在之间 27和17点(UTC)
风速10节,风向
能見度: 2714
天空无云

TAF: KNYL 2621/2721 VRB05KT 9999 SKC QNH2968INS TEMPO 2702/2707 19008KT BECMG 271700 18010KT 9999 SKC QNH2975INS AUTOMATED SENSOR METWATCH 2623 TIL 2714 T41/2622Z T22/2713Z

超过4000个机场的气象观测和天气预报(METAR&TAF报告)。

可查询的气象台以黄色和红色小点在地图上表示。

将鼠标移到小点上方,可查看气象台名称。

然后点击查看天气观测和预报。

如需切换地图:点击带黑十字的绿色按钮放大地图;点击带横线的绿色按钮缩小地图;或者点击绿色箭头查看邻近地区的地图。


METAR-TAF: